Time;durP1;ratioP1;P1;durP2;ratioP2;P2;SDS_P1;SDS_P2;PMS_P1;PMS_P2;Temp;Humidity;BMP_temperature;BMP_pressure;BME280_temperature;BME280_humidity;BME280_pressure;Samples;Min_cycle;Max_cycle;Signal;HPM_P1;HPM_P2
2021/12/13 00:00:11;;;;;;;282.55;39.35;;;;;;;;;;5079543;28;20036;-61
2021/12/13 00:02:41;;;;;;;278.58;39.33;;;;;;;;;;5077967;28;20067;-61
2021/12/13 00:05:11;;;;;;;296.80;39.95;;;;;;;;;;5077523;28;20476;-61
2021/12/13 00:07:39;;;;;;;328.58;41.22;;;;;;;;;;5090445;28;20048;-61
2021/12/13 00:10:11;;;;;;;338.35;39.97;;;;;;;;;;5089774;28;20051;-61
2021/12/13 00:12:42;;;;;;;343.83;40.92;;;;;;;;;;5087864;28;20132;-61
2021/12/13 00:15:13;;;;;;;330.33;41.72;;;;;;;;;;5090074;28;20131;-61
2021/12/13 00:17:45;;;;;;;326.35;42.05;;;;;;;;;;5074435;28;20052;-62
2021/12/13 00:20:15;;;;;;;342.25;44.45;;;;;;;;;;5081654;28;20040;-61
2021/12/13 00:22:44;;;;;;;302.05;43.20;;;;;;;;;;5082536;28;20044;-61
2021/12/13 00:25:15;;;;;;;339.17;43.22;;;;;;;;;;5087525;28;20055;-61
2021/12/13 00:27:43;;;;;;;365.48;45.50;;;;;;;;;;5084266;28;20040;-61
2021/12/13 00:30:10;;;;;;;396.40;47.95;;;;;;;;;;5090404;28;20036;-61
2021/12/13 00:32:40;;;;;;;396.17;50.35;;;;;;;;;;5087878;28;20035;-61
2021/12/13 00:35:09;;;;;;;324.73;46.30;;;;;;;;;;5084068;28;20032;-61
2021/12/13 00:37:38;;;;;;;355.30;46.90;;;;;;;;;;5082967;28;20127;-61
2021/12/13 00:40:05;;;;;;;321.27;46.53;;;;;;;;;;5082288;28;20043;-62
2021/12/13 00:42:37;;;;;;;351.92;46.83;;;;;;;;;;5082518;28;20548;-61
2021/12/13 00:45:07;;;;;;;368.15;50.30;;;;;;;;;;5090859;28;20036;-61
2021/12/13 00:47:35;;;;;;;354.45;49.25;;;;;;;;;;5086405;28;20040;-61
2021/12/13 00:50:10;;;;;;;262.25;43.47;;;;;;;;;;5090004;28;20479;-61
2021/12/13 00:52:38;;;;;;;265.38;41.53;;;;;;;;;;5086452;28;20044;-61
2021/12/13 00:55:10;;;;;;;241.30;40.13;;;;;;;;;;5093000;28;20063;-61
2021/12/13 00:57:41;;;;;;;266.63;40.00;;;;;;;;;;5096131;28;20044;-61
2021/12/13 01:00:08;;;;;;;211.73;37.10;;;;;;;;;;5087655;28;20051;-61
2021/12/13 01:02:43;;;;;;;226.68;37.28;;;;;;;;;;5080907;28;20131;-61
2021/12/13 01:05:10;;;;;;;206.43;36.92;;;;;;;;;;5083549;28;20411;-61
2021/12/13 01:07:46;;;;;;;205.98;35.50;;;;;;;;;;5082662;28;20055;-61
2021/12/13 01:10:31;;;;;;;194.73;37.17;;;;;;;;;;5082817;28;20083;-61
2021/12/13 01:12:59;;;;;;;193.23;35.20;;;;;;;;;;5087673;28;20094;-61
2021/12/13 01:15:30;;;;;;;193.73;33.90;;;;;;;;;;5089046;28;20035;-61
2021/12/13 01:18:15;;;;;;;174.70;32.85;;;;;;;;;;5086745;28;20042;-61
2021/12/13 01:20:58;;;;;;;188.85;34.97;;;;;;;;;;5085730;28;20043;-61
2021/12/13 01:23:42;;;;;;;205.88;34.80;;;;;;;;;;5080589;28;20419;-61
2021/12/13 01:28:46;;;;;;;194.15;34.63;;;;;;;;;;5081700;28;20044;-61
2021/12/13 01:31:17;;;;;;;188.50;33.72;;;;;;;;;;5083248;28;20044;-61
2021/12/13 01:33:46;;;;;;;187.07;33.70;;;;;;;;;;5080481;28;20614;-61
2021/12/13 01:36:17;;;;;;;183.35;35.75;;;;;;;;;;5097977;28;20049;-61
2021/12/13 01:38:46;;;;;;;183.10;34.30;;;;;;;;;;5081838;28;20119;-61
2021/12/13 01:41:17;;;;;;;193.00;35.40;;;;;;;;;;5079561;28;20852;-62
2021/12/13 01:43:48;;;;;;;190.23;36.38;;;;;;;;;;5084796;28;20101;-61
2021/12/13 01:46:15;;;;;;;190.85;38.35;;;;;;;;;;5085172;28;20377;-61
2021/12/13 01:48:43;;;;;;;232.70;41.40;;;;;;;;;;5082980;28;20055;-61
2021/12/13 01:51:11;;;;;;;216.77;39.42;;;;;;;;;;5084954;28;20619;-61
2021/12/13 01:53:38;;;;;;;221.68;41.78;;;;;;;;;;5089713;28;20036;-61
2021/12/13 01:56:12;;;;;;;229.15;42.78;;;;;;;;;;5092198;28;20044;-61
2021/12/13 01:58:46;;;;;;;257.25;43.47;;;;;;;;;;5091386;28;20695;-62
2021/12/13 02:01:17;;;;;;;232.38;43.05;;;;;;;;;;5081977;28;20131;-61
2021/12/13 02:03:50;;;;;;;243.10;44.25;;;;;;;;;;5083532;28;20044;-61
2021/12/13 02:06:23;;;;;;;267.80;45.95;;;;;;;;;;5080228;28;20041;-61
2021/12/13 02:08:51;;;;;;;227.05;43.50;;;;;;;;;;5083466;28;20044;-61
2021/12/13 02:11:18;;;;;;;217.35;44.13;;;;;;;;;;5078753;28;20126;-61
2021/12/13 02:14:03;;;;;;;225.40;43.83;;;;;;;;;;5084214;28;20048;-61
2021/12/13 02:19:22;;;;;;;210.43;41.88;;;;;;;;;;5083682;28;20047;-61
2021/12/13 02:21:57;;;;;;;214.35;41.85;;;;;;;;;;5084729;28;20070;-61
2021/12/13 02:24:24;;;;;;;195.30;39.92;;;;;;;;;;5082410;28;20047;-61
2021/12/13 02:26:51;;;;;;;182.82;40.53;;;;;;;;;;5084067;28;20048;-61
2021/12/13 02:29:19;;;;;;;193.73;41.28;;;;;;;;;;5088300;28;20054;-61
2021/12/13 02:31:47;;;;;;;172.18;38.97;;;;;;;;;;5089545;28;20051;-61
2021/12/13 02:34:15;;;;;;;181.52;37.63;;;;;;;;;;5078494;28;20063;-61
2021/12/13 02:36:44;;;;;;;156.18;37.70;;;;;;;;;;5076547;28;20062;-62
2021/12/13 02:39:12;;;;;;;140.00;35.20;;;;;;;;;;5083898;28;20097;-61
2021/12/13 02:41:39;;;;;;;145.07;33.67;;;;;;;;;;5081454;28;20044;-61
2021/12/13 02:44:09;;;;;;;133.50;34.33;;;;;;;;;;5087879;28;20028;-61
2021/12/13 02:46:36;;;;;;;138.70;34.22;;;;;;;;;;5086894;28;20047;-61
2021/12/13 02:49:05;;;;;;;84.50;23.50;;;;;;;;;;5084040;28;20087;-61
2021/12/13 02:51:33;;;;;;;108.32;26.95;;;;;;;;;;5085784;28;20068;-61
2021/12/13 02:54:08;;;;;;;101.90;27.50;;;;;;;;;;5081695;28;20040;-61
2021/12/13 02:56:37;;;;;;;106.07;28.60;;;;;;;;;;5089024;28;20135;-62
2021/12/13 02:59:04;;;;;;;112.45;29.13;;;;;;;;;;5089692;28;20089;-61
2021/12/13 03:01:34;;;;;;;107.95;27.58;;;;;;;;;;5086916;28;20047;-61
2021/12/13 03:04:03;;;;;;;121.00;26.98;;;;;;;;;;5081459;28;20430;-62
2021/12/13 03:06:32;;;;;;;108.30;27.42;;;;;;;;;;5076323;28;20080;-61
2021/12/13 03:09:00;;;;;;;101.65;28.35;;;;;;;;;;5073881;28;20083;-61
2021/12/13 03:11:32;;;;;;;100.38;25.77;;;;;;;;;;5093404;28;20035;-61
2021/12/13 03:14:01;;;;;;;88.85;26.20;;;;;;;;;;5081947;28;20040;-61
2021/12/13 03:16:29;;;;;;;87.68;25.30;;;;;;;;;;5084470;28;20048;-61
2021/12/13 03:18:58;;;;;;;93.88;26.90;;;;;;;;;;5080148;28;20188;-61
2021/12/13 03:21:43;;;;;;;83.45;25.20;;;;;;;;;;5084912;28;20365;-61
2021/12/13 03:24:19;;;;;;;77.75;24.08;;;;;;;;;;5088423;28;20093;-61
2021/12/13 03:26:55;;;;;;;87.07;23.55;;;;;;;;;;5088194;28;20109;-62
2021/12/13 03:29:42;;;;;;;77.93;22.98;;;;;;;;;;5081046;28;20127;-61
2021/12/13 03:32:10;;;;;;;61.53;19.98;;;;;;;;;;5075512;28;20044;-62
2021/12/13 03:34:38;;;;;;;71.07;22.55;;;;;;;;;;5075999;28;20040;-61
2021/12/13 03:37:14;;;;;;;73.57;22.35;;;;;;;;;;5077971;28;20119;-61
2021/12/13 03:39:43;;;;;;;63.30;23.10;;;;;;;;;;5084671;28;20040;-61
2021/12/13 03:42:12;;;;;;;79.90;24.50;;;;;;;;;;5086571;28;20490;-61
2021/12/13 03:44:40;;;;;;;80.10;26.52;;;;;;;;;;5086323;28;20051;-61
2021/12/13 03:47:11;;;;;;;71.35;25.90;;;;;;;;;;5085840;28;20044;-62
2021/12/13 03:49:41;;;;;;;78.03;25.35;;;;;;;;;;5089258;28;20040;-62
2021/12/13 03:52:09;;;;;;;71.82;23.98;;;;;;;;;;5092571;28;20048;-61
2021/12/13 03:54:38;;;;;;;74.07;23.40;;;;;;;;;;5093164;28;20032;-61
2021/12/13 03:57:05;;;;;;;63.63;21.58;;;;;;;;;;5092420;28;20055;-62
2021/12/13 03:59:34;;;;;;;66.03;21.92;;;;;;;;;;5085612;28;20078;-61
2021/12/13 04:02:03;;;;;;;59.80;18.63;;;;;;;;;;5079105;28;20471;-61
2021/12/13 04:04:32;;;;;;;46.33;16.33;;;;;;;;;;5080522;28;20166;-62
2021/12/13 04:07:07;;;;;;;51.50;15.43;;;;;;;;;;5080823;28;20348;-61
2021/12/13 04:09:33;;;;;;;45.55;16.10;;;;;;;;;;5077813;28;20043;-61
2021/12/13 04:12:03;;;;;;;58.00;16.13;;;;;;;;;;5085290;28;20032;-61
2021/12/13 04:14:34;;;;;;;48.08;16.95;;;;;;;;;;5084134;28;20408;-61
2021/12/13 04:17:19;;;;;;;41.25;14.48;;;;;;;;;;5085900;28;20489;-61
2021/12/13 04:19:48;;;;;;;33.10;13.82;;;;;;;;;;5100982;28;20055;-62
2021/12/13 04:22:16;;;;;;;34.88;12.82;;;;;;;;;;5090126;28;20032;-61
2021/12/13 04:24:47;;;;;;;38.95;12.82;;;;;;;;;;5091233;28;20071;-61
2021/12/13 04:27:19;;;;;;;27.20;9.60;;;;;;;;;;5089072;28;20048;-62
2021/12/13 04:29:46;;;;;;;39.00;11.07;;;;;;;;;;5084012;28;20055;-61
2021/12/13 04:32:18;;;;;;;22.38;7.55;;;;;;;;;;5098025;28;20050;-61
2021/12/13 04:34:46;;;;;;;19.10;7.13;;;;;;;;;;5076223;28;20372;-62
2021/12/13 04:37:16;;;;;;;22.33;8.57;;;;;;;;;;5084665;28;20130;-61
2021/12/13 04:39:43;;;;;;;27.95;8.95;;;;;;;;;;5082298;28;20395;-62
2021/12/13 04:42:12;;;;;;;20.83;7.13;;;;;;;;;;5086774;28;20040;-61
2021/12/13 04:44:44;;;;;;;24.58;7.95;;;;;;;;;;5083532;28;20144;-61
2021/12/13 04:47:12;;;;;;;20.42;8.00;;;;;;;;;;5078965;28;20882;-62
2021/12/13 04:49:41;;;;;;;18.50;6.35;;;;;;;;;;5085378;28;20039;-62
2021/12/13 04:52:09;;;;;;;18.10;7.18;;;;;;;;;;5086631;28;20043;-61
2021/12/13 04:54:37;;;;;;;15.57;7.35;;;;;;;;;;5086831;28;20040;-61
2021/12/13 04:57:04;;;;;;;18.50;8.05;;;;;;;;;;5087704;28;20124;-61
2021/12/13 04:59:31;;;;;;;17.75;9.23;;;;;;;;;;5084283;28;20080;-62
2021/12/13 05:02:00;;;;;;;25.45;10.50;;;;;;;;;;5079953;28;20448;-62
2021/12/13 05:04:29;;;;;;;24.55;9.70;;;;;;;;;;5078558;28;20472;-62
2021/12/13 05:06:56;;;;;;;20.58;10.80;;;;;;;;;;5081954;28;20056;-61
2021/12/13 05:09:23;;;;;;;21.60;10.13;;;;;;;;;;5089753;28;20048;-62
2021/12/13 05:11:51;;;;;;;23.00;11.25;;;;;;;;;;5084176;28;20086;-61
2021/12/13 05:14:28;;;;;;;22.83;11.38;;;;;;;;;;5082741;28;20070;-62
2021/12/13 05:16:55;;;;;;;19.98;10.80;;;;;;;;;;5081675;28;20437;-61
2021/12/13 05:19:31;;;;;;;20.92;11.20;;;;;;;;;;5084829;28;20036;-61
2021/12/13 05:21:58;;;;;;;18.20;10.00;;;;;;;;;;5087237;28;20047;-62
2021/12/13 05:24:27;;;;;;;20.40;10.98;;;;;;;;;;5084254;28;20036;-61
2021/12/13 05:26:55;;;;;;;27.50;11.45;;;;;;;;;;5087515;28;20404;-62
2021/12/13 05:29:22;;;;;;;19.67;10.93;;;;;;;;;;5079527;28;20166;-61
2021/12/13 05:31:53;;;;;;;23.73;11.55;;;;;;;;;;5081056;28;20136;-61
2021/12/13 05:34:20;;;;;;;24.40;12.32;;;;;;;;;;5106261;28;20480;-62
2021/12/13 05:36:54;;;;;;;24.50;12.00;;;;;;;;;;5087326;28;20052;-61
2021/12/13 05:39:21;;;;;;;24.05;11.90;;;;;;;;;;5083884;28;20036;-62
2021/12/13 05:41:51;;;;;;;20.33;11.73;;;;;;;;;;5086802;28;20112;-61
2021/12/13 05:44:22;;;;;;;24.73;12.43;;;;;;;;;;5083192;28;20070;-61
2021/12/13 05:46:49;;;;;;;23.92;13.15;;;;;;;;;;5084664;28;20139;-61
2021/12/13 05:49:20;;;;;;;24.63;12.80;;;;;;;;;;5089140;28;20391;-61
2021/12/13 05:51:49;;;;;;;28.70;13.85;;;;;;;;;;5093032;28;20043;-61
2021/12/13 05:54:24;;;;;;;24.40;13.40;;;;;;;;;;5089892;28;20051;-62
2021/12/13 05:56:52;;;;;;;28.25;14.38;;;;;;;;;;5085343;28;20071;-61
2021/12/13 05:59:23;;;;;;;23.80;12.85;;;;;;;;;;5078879;28;20110;-61
2021/12/13 06:01:49;;;;;;;26.27;14.15;;;;;;;;;;5078126;28;20142;-61
2021/12/13 06:04:33;;;;;;;23.55;12.95;;;;;;;;;;5075428;28;20094;-62
2021/12/13 06:07:00;;;;;;;23.27;13.30;;;;;;;;;;5079454;28;20047;-61
2021/12/13 06:09:41;;;;;;;26.13;13.70;;;;;;;;;;5084510;28;20032;-62
2021/12/13 06:12:09;;;;;;;26.75;13.57;;;;;;;;;;5086226;28;20048;-62
2021/12/13 06:14:35;;;;;;;22.27;13.02;;;;;;;;;;5087593;28;20077;-61
2021/12/13 06:17:01;;;;;;;20.33;12.02;;;;;;;;;;5087279;28;20134;-62
2021/12/13 06:19:31;;;;;;;25.23;11.77;;;;;;;;;;5085226;28;20106;-61
2021/12/13 06:22:05;;;;;;;21.30;12.10;;;;;;;;;;5083934;28;20048;-61
2021/12/13 06:24:34;;;;;;;21.90;11.77;;;;;;;;;;5088876;28;20036;-61
2021/12/13 06:27:02;;;;;;;24.10;11.50;;;;;;;;;;5085023;28;20071;-62
2021/12/13 06:29:46;;;;;;;28.15;11.73;;;;;;;;;;5086265;28;20040;-61
2021/12/13 06:32:25;;;;;;;17.77;10.53;;;;;;;;;;5082707;28;20036;-61
2021/12/13 06:34:51;;;;;;;22.10;12.20;;;;;;;;;;5082545;28;20319;-61
2021/12/13 06:37:26;;;;;;;21.73;11.43;;;;;;;;;;5093051;28;20056;-61
2021/12/13 06:40:09;;;;;;;19.42;11.48;;;;;;;;;;5092764;28;20067;-61
2021/12/13 06:42:35;;;;;;;23.90;12.02;;;;;;;;;;5089247;28;20392;-61
2021/12/13 06:45:01;;;;;;;20.50;11.45;;;;;;;;;;5091268;28;20082;-61
2021/12/13 06:47:28;;;;;;;25.45;11.10;;;;;;;;;;5082240;28;20463;-61
2021/12/13 06:49:56;;;;;;;20.48;11.80;;;;;;;;;;5082223;28;20491;-61
2021/12/13 06:52:29;;;;;;;21.08;11.93;;;;;;;;;;5082391;28;20067;-62
2021/12/13 06:54:57;;;;;;;20.85;11.82;;;;;;;;;;5074890;28;20503;-61
2021/12/13 06:57:32;;;;;;;21.58;12.13;;;;;;;;;;5082924;28;20098;-61
2021/12/13 07:00:00;;;;;;;31.65;14.73;;;;;;;;;;5084031;28;20074;-62
2021/12/13 07:02:36;;;;;;;20.02;13.32;;;;;;;;;;5080950;28;20112;-61
2021/12/13 07:05:06;;;;;;;29.13;13.75;;;;;;;;;;5081973;28;20457;-62
2021/12/13 07:07:36;;;;;;;22.40;14.35;;;;;;;;;;5076454;28;20965;-62
2021/12/13 07:10:06;;;;;;;20.30;13.60;;;;;;;;;;5085855;28;20040;-62
2021/12/13 07:12:32;;;;;;;21.95;13.80;;;;;;;;;;5083119;28;20557;-61
2021/12/13 07:15:00;;;;;;;25.83;14.75;;;;;;;;;;5086202;28;20067;-61
2021/12/13 07:17:33;;;;;;;26.77;15.35;;;;;;;;;;5081115;28;20060;-62
2021/12/13 07:20:00;;;;;;;26.63;16.02;;;;;;;;;;5080725;28;20040;-62
2021/12/13 07:22:28;;;;;;;23.98;15.73;;;;;;;;;;5095069;28;20212;-62
2021/12/13 07:25:10;;;;;;;25.70;15.57;;;;;;;;;;5085231;28;20044;-62
2021/12/13 07:27:44;;;;;;;26.63;16.23;;;;;;;;;;5087514;28;20109;-61
2021/12/13 07:30:14;;;;;;;29.50;18.50;;;;;;;;;;5085911;28;20076;-62
2021/12/13 07:32:43;;;;;;;24.98;16.50;;;;;;;;;;5081405;28;20051;-62
2021/12/13 07:35:20;;;;;;;24.88;16.38;;;;;;;;;;5085797;28;20372;-61
2021/12/13 07:37:57;;;;;;;30.58;18.00;;;;;;;;;;5081460;28;20056;-62
2021/12/13 07:40:26;;;;;;;27.27;17.60;;;;;;;;;;5086202;28;20333;-61
2021/12/13 07:42:58;;;;;;;29.38;17.17;;;;;;;;;;5083810;28;20044;-61
2021/12/13 07:45:26;;;;;;;25.10;16.95;;;;;;;;;;5082457;28;20521;-61
2021/12/13 07:47:53;;;;;;;25.35;17.98;;;;;;;;;;5084014;28;20040;-61
2021/12/13 07:50:21;;;;;;;27.20;17.27;;;;;;;;;;5085967;28;20554;-61
2021/12/13 07:52:54;;;;;;;28.30;16.70;;;;;;;;;;5085150;28;20052;-61
2021/12/13 07:55:23;;;;;;;27.92;18.15;;;;;;;;;;5079554;28;20396;-61
2021/12/13 07:57:49;;;;;;;27.85;18.80;;;;;;;;;;5074301;28;20061;-61
2021/12/13 08:00:20;;;;;;;28.27;16.63;;;;;;;;;;5072653;28;20048;-61
2021/12/13 08:02:54;;;;;;;26.67;17.10;;;;;;;;;;5075817;28;20048;-61
2021/12/13 08:05:24;;;;;;;27.95;16.88;;;;;;;;;;5081736;28;20395;-61
2021/12/13 08:07:53;;;;;;;27.65;17.77;;;;;;;;;;5088613;28;20188;-62
2021/12/13 08:10:25;;;;;;;26.92;18.52;;;;;;;;;;5088597;28;20428;-61
2021/12/13 08:12:53;;;;;;;25.90;17.88;;;;;;;;;;5085453;28;20044;-62
2021/12/13 08:15:23;;;;;;;27.60;17.40;;;;;;;;;;5085198;28;20050;-62
2021/12/13 08:17:53;;;;;;;34.92;19.17;;;;;;;;;;5080795;28;20064;-61
2021/12/13 08:20:24;;;;;;;31.08;18.55;;;;;;;;;;5085495;28;20112;-61
2021/12/13 08:22:50;;;;;;;27.15;18.15;;;;;;;;;;5084510;28;20520;-61
2021/12/13 08:25:19;;;;;;;31.85;18.73;;;;;;;;;;5085250;28;20198;-61
2021/12/13 08:27:57;;;;;;;34.95;17.08;;;;;;;;;;5090012;28;20067;-61
2021/12/13 08:30:26;;;;;;;27.55;17.67;;;;;;;;;;5088052;28;20041;-61
2021/12/13 08:33:03;;;;;;;36.45;17.33;;;;;;;;;;5086987;28;20040;-61
2021/12/13 08:35:47;;;;;;;29.33;16.52;;;;;;;;;;5088116;28;20131;-61
2021/12/13 08:38:25;;;;;;;23.08;16.25;;;;;;;;;;5088207;28;20536;-61
2021/12/13 08:40:51;;;;;;;29.23;16.38;;;;;;;;;;5094257;28;20113;-61
2021/12/13 08:43:33;;;;;;;28.08;17.80;;;;;;;;;;5091102;28;20040;-61
2021/12/13 08:45:59;;;;;;;26.98;16.15;;;;;;;;;;5086625;28;20067;-61
2021/12/13 08:48:25;;;;;;;26.98;16.13;;;;;;;;;;5086195;28;20036;-61
2021/12/13 08:50:54;;;;;;;23.52;16.45;;;;;;;;;;5088565;28;20068;-61
2021/12/13 08:53:24;;;;;;;22.88;15.65;;;;;;;;;;5086823;28;20476;-61
2021/12/13 08:55:53;;;;;;;26.08;16.70;;;;;;;;;;5083417;28;20040;-61
2021/12/13 08:58:20;;;;;;;23.67;16.15;;;;;;;;;;5086766;28;20036;-61
2021/12/13 09:00:48;;;;;;;24.67;15.38;;;;;;;;;;5086574;28;20177;-61
2021/12/13 09:03:14;;;;;;;24.23;16.40;;;;;;;;;;5090276;28;20116;-61
2021/12/13 09:05:51;;;;;;;25.88;17.00;;;;;;;;;;5090262;28;20592;-61
2021/12/13 09:08:18;;;;;;;21.33;14.73;;;;;;;;;;5087470;28;20543;-61
2021/12/13 09:10:48;;;;;;;24.48;16.33;;;;;;;;;;5091846;28;20047;-62
2021/12/13 09:13:17;;;;;;;25.10;15.57;;;;;;;;;;5086953;28;20213;-61
2021/12/13 09:15:44;;;;;;;22.90;15.95;;;;;;;;;;5082741;28;20142;-61
2021/12/13 09:18:17;;;;;;;27.10;15.77;;;;;;;;;;5086719;28;20045;-62
2021/12/13 09:20:48;;;;;;;26.02;14.25;;;;;;;;;;5087023;28;20040;-61
2021/12/13 09:23:18;;;;;;;21.98;14.00;;;;;;;;;;5086970;28;20044;-61
2021/12/13 09:25:50;;;;;;;21.52;14.82;;;;;;;;;;5078989;28;20040;-62
2021/12/13 09:28:25;;;;;;;21.15;14.18;;;;;;;;;;5099782;28;20050;-61
2021/12/13 09:30:54;;;;;;;21.23;13.98;;;;;;;;;;5089355;28;20079;-61
2021/12/13 09:33:20;;;;;;;23.58;15.55;;;;;;;;;;5096529;28;20257;-61
2021/12/13 09:35:50;;;;;;;19.67;13.80;;;;;;;;;;5080852;28;20430;-61
2021/12/13 09:38:18;;;;;;;20.27;13.25;;;;;;;;;;5092136;28;20067;-61
2021/12/13 09:40:46;;;;;;;28.40;15.23;;;;;;;;;;5092942;28;20113;-61
2021/12/13 09:43:12;;;;;;;19.67;14.07;;;;;;;;;;5101240;28;20128;-62
2021/12/13 09:45:41;;;;;;;26.02;13.73;;;;;;;;;;5092151;28;20036;-62
2021/12/13 09:48:31;;;;;;;24.08;14.70;;;;;;;;;;5089787;28;20054;-61
2021/12/13 09:51:03;;;;;;;28.92;15.77;;;;;;;;;;5116071;27;20043;-62
2021/12/13 09:53:31;;;;;;;21.50;14.82;;;;;;;;;;5111600;28;20066;-62
2021/12/13 09:55:59;;;;;;;25.58;14.88;;;;;;;;;;5112504;28;20082;-62
2021/12/13 09:58:33;;;;;;;22.90;15.05;;;;;;;;;;5093434;28;20469;-62
2021/12/13 10:01:05;;;;;;;18.55;12.90;;;;;;;;;;5099877;28;20070;-62
2021/12/13 10:03:39;;;;;;;22.60;13.65;;;;;;;;;;5102230;28;20558;-62
2021/12/13 10:06:05;;;;;;;;;;;;;;;;;;5095927;28;20158;-61
2021/12/13 10:08:40;;;;;;;23.42;14.82;;;;;;;;;;5112346;28;20451;-62
2021/12/13 10:11:08;;;;;;;23.10;13.70;;;;;;;;;;5089368;28;20044;-62
2021/12/13 10:13:36;;;;;;;21.73;14.13;;;;;;;;;;5104654;28;20143;-62
2021/12/13 10:16:07;;;;;;;23.88;14.18;;;;;;;;;;5093112;28;20043;-62
2021/12/13 10:18:34;;;;;;;22.88;14.38;;;;;;;;;;5093031;28;20124;-62
2021/12/13 10:21:04;;;;;;;18.98;13.25;;;;;;;;;;5111966;28;20043;-62
2021/12/13 10:23:32;;;;;;;20.65;14.07;;;;;;;;;;5111815;28;20128;-62
2021/12/13 10:26:00;;;;;;;20.35;13.57;;;;;;;;;;5089429;28;20059;-62
2021/12/13 10:28:29;;;;;;;23.08;14.73;;;;;;;;;;5092777;28;20047;-62
2021/12/13 10:30:58;;;;;;;19.77;13.32;;;;;;;;;;5101463;28;20118;-62
2021/12/13 10:33:25;;;;;;;22.05;14.32;;;;;;;;;;5090660;28;20047;-62
2021/12/13 10:35:53;;;;;;;22.20;14.73;;;;;;;;;;5092534;28;20048;-62
2021/12/13 10:38:23;;;;;;;24.60;14.13;;;;;;;;;;5092118;28;20051;-62
2021/12/13 10:40:59;;;;;;;20.65;13.65;;;;;;;;;;5097222;28;20108;-62
2021/12/13 10:43:27;;;;;;;22.10;14.30;;;;;;;;;;5111573;28;20415;-62
2021/12/13 10:45:56;;;;;;;24.92;14.88;;;;;;;;;;5109033;28;20487;-62
2021/12/13 10:48:26;;;;;;;23.77;14.85;;;;;;;;;;5108489;28;20039;-62
2021/12/13 10:50:59;;;;;;;22.48;15.20;;;;;;;;;;5108903;28;20356;-62
2021/12/13 10:53:26;;;;;;;24.02;14.30;;;;;;;;;;5107709;28;20104;-62
2021/12/13 10:55:56;;;;;;;27.20;15.55;;;;;;;;;;5110372;28;20042;-62
2021/12/13 10:58:24;;;;;;;27.50;16.55;;;;;;;;;;5111440;28;20039;-62
2021/12/13 11:00:54;;;;;;;26.10;17.23;;;;;;;;;;5099716;28;20238;-62
2021/12/13 11:03:21;;;;;;;28.52;17.77;;;;;;;;;;5092100;28;20062;-62
2021/12/13 11:05:49;;;;;;;28.42;18.40;;;;;;;;;;5100587;28;20055;-62
2021/12/13 11:08:17;;;;;;;36.47;19.48;;;;;;;;;;5093770;28;20387;-62
2021/12/13 11:10:50;;;;;;;33.30;20.00;;;;;;;;;;5088124;28;20509;-62
2021/12/13 11:13:17;;;;;;;38.35;21.27;;;;;;;;;;5111321;28;20044;-62
2021/12/13 11:15:46;;;;;;;35.85;22.35;;;;;;;;;;5096320;28;20036;-62
2021/12/13 11:18:14;;;;;;;37.47;21.45;;;;;;;;;;5102547;28;20142;-61
2021/12/13 11:20:42;;;;;;;46.58;24.98;;;;;;;;;;5107356;28;20051;-62
2021/12/13 11:23:09;;;;;;;40.38;23.05;;;;;;;;;;5106946;28;20402;-62
2021/12/13 11:25:39;;;;;;;41.92;23.45;;;;;;;;;;5108945;28;20486;-62
2021/12/13 11:28:05;;;;;;;43.55;24.60;;;;;;;;;;5099501;28;20049;-62
2021/12/13 11:30:33;;;;;;;51.25;24.50;;;;;;;;;;5107405;28;20105;-62
2021/12/13 11:32:59;;;;;;;41.13;22.58;;;;;;;;;;5103897;28;20107;-62
2021/12/13 11:35:45;;;;;;;45.13;24.85;;;;;;;;;;5107622;28;20079;-62
2021/12/13 11:38:26;;;;;;;38.88;23.02;;;;;;;;;;5087518;28;20082;-62
2021/12/13 11:41:08;;;;;;;39.03;22.45;;;;;;;;;;5091663;28;20138;-62
2021/12/13 11:43:50;;;;;;;33.88;20.90;;;;;;;;;;5098063;28;20036;-62
2021/12/13 11:46:32;;;;;;;32.85;19.60;;;;;;;;;;5087788;28;20101;-62
2021/12/13 11:49:19;;;;;;;34.45;19.30;;;;;;;;;;5090736;28;20373;-62
2021/12/13 11:51:47;;;;;;;32.35;18.58;;;;;;;;;;5090221;28;20044;-62
2021/12/13 11:54:32;;;;;;;28.85;17.85;;;;;;;;;;5109379;28;20120;-62
2021/12/13 11:57:05;;;;;;;27.42;17.45;;;;;;;;;;5093845;28;20068;-62
2021/12/13 11:59:38;;;;;;;25.83;15.90;;;;;;;;;;5092057;28;20398;-62
2021/12/13 12:02:08;;;;;;;22.60;14.82;;;;;;;;;;5092306;28;20040;-61
2021/12/13 12:04:53;;;;;;;24.45;15.88;;;;;;;;;;5104568;28;20062;-62
2021/12/13 12:07:39;;;;;;;22.17;14.45;;;;;;;;;;5097044;28;20388;-62
2021/12/13 12:10:11;;;;;;;23.08;14.38;;;;;;;;;;5096233;27;20036;-62
2021/12/13 12:12:49;;;;;;;23.75;14.88;;;;;;;;;;5093213;28;20059;-62
2021/12/13 12:15:16;;;;;;;20.65;13.25;;;;;;;;;;5093713;28;20036;-62
2021/12/13 12:17:43;;;;;;;22.38;14.60;;;;;;;;;;5093555;28;20459;-62
2021/12/13 12:20:11;;;;;;;24.70;14.20;;;;;;;;;;5088693;28;20112;-62
2021/12/13 12:22:43;;;;;;;24.00;12.50;;;;;;;;;;5094359;28;20040;-61
2021/12/13 12:25:09;;;;;;;27.13;15.13;;;;;;;;;;5095090;28;20039;-62
2021/12/13 12:27:36;;;;;;;22.67;12.15;;;;;;;;;;5090994;28;20044;-62
2021/12/13 12:30:07;;;;;;;22.42;12.60;;;;;;;;;;5098020;28;20039;-62
2021/12/13 12:32:34;;;;;;;20.08;12.70;;;;;;;;;;5094598;28;20180;-62
2021/12/13 12:35:02;;;;;;;21.08;12.13;;;;;;;;;;5096804;28;20048;-61
2021/12/13 12:37:30;;;;;;;22.05;11.70;;;;;;;;;;5075643;27;21455;-61
2021/12/13 12:40:08;;;;;;;20.45;12.52;;;;;;;;;;5085412;28;20055;-62
2021/12/13 12:42:35;;;;;;;22.77;13.25;;;;;;;;;;5103043;28;20052;-63
2021/12/13 12:45:11;;;;;;;21.90;13.23;;;;;;;;;;5095363;28;20479;-61
2021/12/13 12:47:37;;;;;;;27.33;13.50;;;;;;;;;;5109656;27;20177;-61
2021/12/13 12:50:16;;;;;;;23.88;14.77;;;;;;;;;;5093501;28;20039;-61
2021/12/13 12:52:54;;;;;;;22.35;14.75;;;;;;;;;;5103188;28;20043;-61
2021/12/13 12:55:22;;;;;;;21.17;13.30;;;;;;;;;;5101677;28;20123;-61
2021/12/13 12:57:49;;;;;;;22.55;12.88;;;;;;;;;;5100004;28;20189;-61
2021/12/13 13:00:21;;;;;;;22.77;13.60;;;;;;;;;;5096511;28;20036;-61
2021/12/13 13:02:47;;;;;;;23.08;13.82;;;;;;;;;;5097058;28;20048;-61
2021/12/13 13:05:14;;;;;;;21.70;13.68;;;;;;;;;;5089337;28;20139;-61
2021/12/13 13:07:40;;;;;;;25.65;14.45;;;;;;;;;;5089506;28;20048;-61
2021/12/13 13:10:23;;;;;;;27.63;13.35;;;;;;;;;;5092343;28;20036;-61
2021/12/13 13:12:50;;;;;;;27.27;12.80;;;;;;;;;;5089716;28;20052;-62
2021/12/13 13:15:17;;;;;;;20.73;12.85;;;;;;;;;;5086220;28;20069;-61
2021/12/13 13:17:45;;;;;;;22.88;13.20;;;;;;;;;;5090583;28;20059;-61
2021/12/13 13:20:15;;;;;;;25.48;14.02;;;;;;;;;;5098719;28;20039;-61
2021/12/13 13:22:43;;;;;;;24.30;14.02;;;;;;;;;;5101063;28;20051;-61
2021/12/13 13:25:12;;;;;;;21.00;13.65;;;;;;;;;;5103468;27;20031;-62
2021/12/13 13:27:39;;;;;;;26.27;14.77;;;;;;;;;;5087079;28;20510;-61
2021/12/13 13:30:08;;;;;;;29.05;14.63;;;;;;;;;;5087835;28;20191;-62
2021/12/13 13:32:37;;;;;;;23.35;14.48;;;;;;;;;;5089105;28;20047;-61
2021/12/13 13:35:04;;;;;;;22.20;14.73;;;;;;;;;;5086303;28;20036;-61
2021/12/13 13:37:33;;;;;;;25.75;14.75;;;;;;;;;;5089970;28;20445;-61
2021/12/13 13:40:04;;;;;;;24.90;14.50;;;;;;;;;;5081570;28;20170;-62
2021/12/13 13:42:33;;;;;;;22.30;13.90;;;;;;;;;;5084594;28;20031;-61
2021/12/13 13:45:01;;;;;;;25.67;14.85;;;;;;;;;;5089114;28;20043;-61
2021/12/13 13:47:29;;;;;;;22.73;14.13;;;;;;;;;;5086049;28;20488;-61
2021/12/13 13:49:56;;;;;;;23.33;14.18;;;;;;;;;;5082811;28;20567;-61
2021/12/13 13:52:26;;;;;;;29.80;15.73;;;;;;;;;;5087983;28;20495;-62
2021/12/13 13:54:54;;;;;;;22.98;14.25;;;;;;;;;;5087833;28;20037;-61
2021/12/13 13:57:22;;;;;;;34.92;17.60;;;;;;;;;;5085761;28;20119;-61
2021/12/13 13:59:49;;;;;;;27.73;16.90;;;;;;;;;;5084944;28;20444;-61
2021/12/13 14:02:18;;;;;;;31.63;17.08;;;;;;;;;;5083319;28;20530;-61
2021/12/13 14:04:47;;;;;;;34.55;18.88;;;;;;;;;;5080893;28;20437;-61
2021/12/13 14:07:16;;;;;;;32.22;18.63;;;;;;;;;;5092995;28;20364;-61
2021/12/13 14:09:48;;;;;;;31.92;18.48;;;;;;;;;;5087692;28;20040;-61
2021/12/13 14:12:23;;;;;;;29.65;17.45;;;;;;;;;;5088237;28;20043;-62
2021/12/13 14:14:50;;;;;;;34.08;18.75;;;;;;;;;;5083959;28;20032;-62
2021/12/13 14:17:30;;;;;;;34.75;18.60;;;;;;;;;;5086820;28;20564;-61
2021/12/13 14:19:57;;;;;;;33.95;18.23;;;;;;;;;;5079396;28;20044;-61
2021/12/13 14:22:30;;;;;;;31.00;18.17;;;;;;;;;;5084725;28;20036;-61
2021/12/13 14:24:57;;;;;;;26.98;16.80;;;;;;;;;;5086281;28;20509;-61
2021/12/13 14:27:28;;;;;;;29.08;16.80;;;;;;;;;;5085451;28;20475;-61
2021/12/13 14:30:12;;;;;;;30.15;17.20;;;;;;;;;;5090953;28;20115;-61
2021/12/13 14:32:38;;;;;;;27.60;15.55;;;;;;;;;;5086035;28;20066;-61
2021/12/13 14:35:23;;;;;;;28.40;16.70;;;;;;;;;;5083469;28;20123;-61
2021/12/13 14:37:50;;;;;;;25.55;16.13;;;;;;;;;;5083891;28;20032;-62
2021/12/13 14:40:16;;;;;;;25.30;15.95;;;;;;;;;;5079140;28;20476;-61